Saturday, October 20, 2018, 6:39 AM EDT
Back to Local

KPBG, Plattsburgh International Airport

Location: Plattsburgh, NY, United States Lat: 44.65
Local Time: 6:39 AM EDT (10:39 GMT) Lon: -73.467
Time Zone: US/Eastern Elev: 239 ft

Show me the last for .
Show Decoded

2018-10-20 05:53 METAR KPBG 200953Z AUTO 17008KT 10SM BKN055 OVC090 11/02 A2948 RMK AO2 SLP984
                 T01110017 =
2018-10-20 04:53 METAR KPBG 200853Z AUTO 17003KT 10SM OVC065 11/02 A2950 RMK AO2 SLP990 T01060017
                 58030 =
2018-10-20 03:53 METAR KPBG 200753Z AUTO 18006KT 10SM OVC065 11/02 A2953 RMK AO2 SLP999 T01110017
                 =
2018-10-20 02:53 METAR KPBG 200653Z AUTO 00000KT 10SM OVC060 11/03 A2957 RMK AO2 SLP013 T01060028
                 =
2018-10-20 01:53 METAR KPBG 200553Z AUTO 17008KT 10SM SCT070 SCT095 BKN120 11/03 A2959 RMK AO2
                 SLP020 T01110033 10128 20100 56028 =
2018-10-20 00:53 METAR KPBG 200453Z AUTO 17011G19KT 10SM OVC100 12/04 A2961 RMK AO2 SLP027
                 T01170039 401560039 =
2018-10-19 23:53 METAR KPBG 200353Z AUTO 17007KT 10SM SCT110 12/04 A2964 RMK AO2 SLP037 T01170044
                 =
2018-10-19 22:53 METAR KPBG 200253Z AUTO 17010KT 10SM CLR 12/04 A2967 RMK AO2 SLP049 T01220044
                 56035 =
2018-10-19 21:53 METAR KPBG 200153Z AUTO 19007KT 10SM CLR 13/04 A2970 RMK AO2 SLP060 T01280044 =
2018-10-19 20:53 METAR KPBG 200053Z AUTO 17007KT 10SM CLR 13/04 A2973 RMK AO2 SLP069 T01280044 =
2018-10-19 19:53 METAR KPBG 192353Z AUTO 18003KT 10SM CLR 12/06 A2978 RMK AO2 SLP085 T01220061
                 10156 20117 58014 =
2018-10-19 18:53 METAR KPBG 192253Z AUTO 14007KT 10SM CLR 13/06 A2981 RMK AO2 SLP095 T01280061 =
2018-10-19 17:53 METAR KPBG 192153Z AUTO 16005KT 10SM CLR 13/05 A2981 RMK AO2 SLP097 T01330050 =
2018-10-19 16:53 METAR KPBG 192053Z AUTO 16008KT 10SM CLR 15/04 A2982 RMK AO2 SLP099 T01500044
                 56023 =
2018-10-19 15:53 METAR KPBG 191953Z AUTO 16011KT 10SM CLR 16/05 A2983 RMK AO2 SLP102 T01560050 =
2018-10-19 14:53 METAR KPBG 191853Z AUTO 16015G21KT 10SM CLR 15/04 A2986 RMK AO2 SLP113 T01500044
                 =
2018-10-19 13:53 METAR KPBG 191753Z AUTO 14014G20KT 10SM CLR 14/04 A2989 RMK AO2 SLP122 T01390044
                 10139 20056 58043 =
2018-10-19 12:53 METAR KPBG 191653Z AUTO 16012G19KT 10SM CLR 12/04 A2993 RMK AO2 SLP136 T01220039
                 =
2018-10-19 11:53 METAR KPBG 191553Z AUTO 16013G19KT 10SM CLR 11/03 A2998 RMK AO2 SLP152 T01110033
                 =
2018-10-19 10:53 METAR KPBG 191453Z AUTO 10SM CLR 12/03 A3001 RMK AO2 SLP165 T01170028 58021 =
2018-10-19 09:53 METAR KPBG 191353Z AUTO 14007KT 10SM CLR 08/03 A3004 RMK AO2 SLP174 T00830028 =
2018-10-19 08:53 METAR KPBG 191253Z AUTO 15010KT 10SM CLR 07/02 A3006 RMK AO2 SLP182 T00670022 =
2018-10-19 07:53 METAR KPBG 191153Z AUTO 16006KT 10SM CLR 06/02 A3008 RMK AO2 SLP187 T00610017
                 10072 20044 56009 =
2018-10-19 06:53 METAR KPBG 191053Z AUTO 22006KT 10SM CLR 06/01 A3008 RMK AO2 SLP188 T00610011 =

Support USWX by starting your Amazon purchase here.